createdAt,value
2018-12-11T00:00:23.176Z,5.83
2018-12-11T00:02:26.117Z,8.57
2018-12-11T00:04:28.631Z,8.20
2018-12-11T00:06:31.144Z,12.50
2018-12-11T00:08:33.750Z,3.30
2018-12-11T00:10:36.290Z,7.93
2018-12-11T00:12:38.996Z,5.23
2018-12-11T00:14:41.498Z,5.10
2018-12-11T00:16:44.086Z,7.57
2018-12-11T00:18:46.643Z,6.10
2018-12-11T00:20:49.166Z,4.57
2018-12-11T00:22:51.733Z,5.87
2018-12-11T00:24:54.252Z,2.87
2018-12-11T00:26:56.850Z,8.30
2018-12-11T00:28:59.383Z,7.00
2018-12-11T00:31:01.950Z,3.93
2018-12-11T00:33:04.455Z,6.43
2018-12-11T00:35:07.133Z,6.47
2018-12-11T00:37:09.710Z,3.87
2018-12-11T00:39:12.305Z,9.30
2018-12-11T00:41:14.952Z,6.73
2018-12-11T00:43:17.537Z,5.63
2018-12-11T00:45:20.106Z,9.33
2018-12-11T00:47:22.640Z,6.80
2018-12-11T00:49:25.211Z,10.77
2018-12-11T00:51:27.706Z,4.70
2018-12-11T00:53:30.259Z,6.50
2018-12-11T00:55:32.774Z,5.90
2018-12-11T00:57:35.389Z,5.77
2018-12-11T00:59:38.016Z,6.67
2018-12-11T01:01:40.634Z,8.60
2018-12-11T01:03:43.299Z,4.57
2018-12-11T01:05:45.803Z,6.07
2018-12-11T01:07:48.330Z,5.80
2018-12-11T01:09:50.862Z,8.47
2018-12-11T01:11:53.375Z,7.93
2018-12-11T01:13:55.906Z,6.17
2018-12-11T01:15:58.502Z,6.23
2018-12-11T01:18:01.032Z,5.70
2018-12-11T01:20:04.558Z,4.17
2018-12-11T01:22:07.297Z,5.63
2018-12-11T01:24:09.938Z,7.37
2018-12-11T01:26:12.494Z,6.23
2018-12-11T01:28:15.087Z,6.10
2018-12-11T01:30:17.638Z,3.83
2018-12-11T01:32:20.203Z,5.50
2018-12-11T01:34:22.862Z,7.53
2018-12-11T01:36:25.441Z,5.93
2018-12-11T01:38:28.100Z,5.40
2018-12-11T01:40:30.646Z,2.80
2018-12-11T01:42:33.168Z,6.50
2018-12-11T01:44:35.734Z,5.40
2018-12-11T01:46:38.465Z,8.90
2018-12-11T01:48:41.130Z,6.33
2018-12-11T01:50:43.734Z,5.57
2018-12-11T01:52:46.237Z,12.73
2018-12-11T01:54:48.767Z,5.37
2018-12-11T01:56:51.553Z,5.47
2018-12-11T01:58:54.158Z,8.30
2018-12-11T02:00:56.803Z,8.63
2018-12-11T02:02:59.314Z,7.80
2018-12-11T02:05:01.923Z,4.60
2018-12-11T02:07:04.457Z,5.27
2018-12-11T02:09:07.111Z,4.43
2018-12-11T02:11:09.754Z,5.07
2018-12-11T02:13:12.266Z,5.87
2018-12-11T02:15:14.798Z,5.37
2018-12-11T02:17:17.322Z,7.20
2018-12-11T02:19:19.838Z,7.00
2018-12-11T02:21:22.403Z,6.80
2018-12-11T02:23:24.962Z,8.97
2018-12-11T02:25:27.473Z,8.10
2018-12-11T02:29:38.850Z,6.70
2018-12-11T02:31:41.434Z,12.47
2018-12-11T02:33:44.099Z,7.60
2018-12-11T02:35:46.632Z,8.40
2018-12-11T02:37:49.289Z,3.63
2018-12-11T02:39:51.895Z,9.07
2018-12-11T02:41:54.408Z,6.90
2018-12-11T02:43:56.955Z,6.83
2018-12-11T02:45:59.582Z,4.87
2018-12-11T02:48:02.247Z,6.33
2018-12-11T02:50:06.266Z,10.20
2018-12-11T02:52:09.132Z,4.40
2018-12-11T02:54:11.818Z,5.17
2018-12-11T02:56:14.366Z,8.63
2018-12-11T02:58:16.896Z,5.50
2018-12-11T03:00:19.433Z,3.57
2018-12-11T03:02:22.042Z,6.63
2018-12-11T03:04:24.591Z,6.53
2018-12-11T03:06:27.110Z,7.17
2018-12-11T03:08:29.702Z,4.80
2018-12-11T03:10:32.258Z,4.97
2018-12-11T03:12:34.777Z,5.03
2018-12-11T03:14:37.337Z,5.20
2018-12-11T03:16:40.014Z,6.07
2018-12-11T03:18:42.538Z,5.17
2018-12-11T03:20:45.068Z,7.90
2018-12-11T03:22:47.605Z,4.10
2018-12-11T03:24:50.155Z,5.73
2018-12-11T03:26:52.800Z,3.10
2018-12-11T03:28:55.510Z,5.17
2018-12-11T03:30:58.090Z,4.13
2018-12-11T03:33:00.653Z,5.97
2018-12-11T03:35:03.515Z,9.37
2018-12-11T03:37:06.049Z,5.57
2018-12-11T03:39:08.606Z,6.60
2018-12-11T03:41:11.136Z,4.40
2018-12-11T03:43:13.715Z,6.27
2018-12-11T03:45:16.413Z,4.80
2018-12-11T03:47:18.959Z,3.43
2018-12-11T03:49:21.685Z,5.03
2018-12-11T03:51:24.276Z,5.37
2018-12-11T03:53:26.861Z,5.47
2018-12-11T03:55:29.385Z,8.07
2018-12-11T03:57:31.946Z,6.83
2018-12-11T03:59:34.485Z,8.00
2018-12-11T04:01:37.131Z,4.00
2018-12-11T04:05:49.206Z,4.63
2018-12-11T04:07:51.823Z,8.30
2018-12-11T04:09:54.334Z,2.77
2018-12-11T04:11:57.080Z,7.40
2018-12-11T04:13:59.683Z,3.37
2018-12-11T04:16:02.326Z,3.90
2018-12-11T04:18:04.870Z,6.90
2018-12-11T04:20:07.933Z,4.67
2018-12-11T04:22:10.447Z,5.03
2018-12-11T04:24:13.000Z,4.70
2018-12-11T04:26:15.684Z,8.07
2018-12-11T04:28:18.225Z,5.90
2018-12-11T04:30:20.914Z,6.53
2018-12-11T04:32:23.571Z,7.57
2018-12-11T04:34:26.185Z,5.10
2018-12-11T04:36:28.811Z,5.83
2018-12-11T04:38:31.337Z,4.63
2018-12-11T04:40:33.896Z,6.37
2018-12-11T04:42:36.532Z,4.53
2018-12-11T04:44:39.100Z,4.77
2018-12-11T04:46:41.635Z,5.90
2018-12-11T04:48:44.297Z,4.83
2018-12-11T04:50:46.818Z,10.33
2018-12-11T04:52:49.362Z,8.13
2018-12-11T04:54:51.940Z,5.10
2018-12-11T04:56:54.552Z,5.67
2018-12-11T04:58:57.178Z,6.90
2018-12-11T05:00:59.706Z,4.77
2018-12-11T05:03:02.258Z,8.60
2018-12-11T05:05:05.661Z,9.17
2018-12-11T05:07:08.235Z,6.33
2018-12-11T05:09:10.950Z,5.33
2018-12-11T05:11:13.577Z,5.27
2018-12-11T05:13:16.181Z,5.03
2018-12-11T05:15:18.737Z,6.90
2018-12-11T05:17:21.323Z,6.83
2018-12-11T05:19:23.932Z,7.33
2018-12-11T05:21:26.463Z,5.03
2018-12-11T05:23:29.174Z,5.60
2018-12-11T05:25:31.701Z,7.33
2018-12-11T05:27:34.245Z,9.60
2018-12-11T05:29:36.753Z,8.87
2018-12-11T05:31:39.442Z,8.20
2018-12-11T05:33:41.984Z,5.03
2018-12-11T05:35:44.505Z,7.73
2018-12-11T05:37:47.061Z,6.57
2018-12-11T05:39:49.611Z,7.27
2018-12-11T05:41:52.183Z,6.07
2018-12-11T05:43:54.689Z,5.23
2018-12-11T05:45:57.225Z,4.80
2018-12-11T05:47:59.761Z,6.50
2018-12-11T05:50:02.432Z,5.50
2018-12-11T05:52:05.060Z,8.43
2018-12-11T05:54:08.475Z,6.30
2018-12-11T05:56:11.015Z,6.17
2018-12-11T05:58:13.595Z,5.33
2018-12-11T06:00:16.249Z,5.00
2018-12-11T06:02:18.793Z,4.83
2018-12-11T06:04:21.503Z,6.77
2018-12-11T06:06:24.036Z,6.67
2018-12-11T06:08:26.605Z,7.63
2018-12-11T06:10:29.157Z,8.33
2018-12-11T06:12:31.677Z,5.40
2018-12-11T06:14:34.341Z,3.97
2018-12-11T06:16:37.045Z,5.30
2018-12-11T06:18:39.565Z,8.07
2018-12-11T06:20:42.182Z,6.70
2018-12-11T06:22:44.734Z,6.53
2018-12-11T06:24:47.297Z,6.00
2018-12-11T06:26:49.923Z,7.70
2018-12-11T06:28:52.541Z,17.83
2018-12-11T06:30:55.142Z,10.47
2018-12-11T06:32:57.689Z,11.10
2018-12-11T06:35:00.193Z,8.03
2018-12-11T06:37:02.753Z,8.80
2018-12-11T06:39:05.868Z,13.40
2018-12-11T06:41:08.373Z,7.83
2018-12-11T06:43:10.910Z,6.93
2018-12-11T06:45:13.558Z,9.17
2018-12-11T06:47:16.170Z,11.47
2018-12-11T06:49:18.774Z,9.20
2018-12-11T06:51:21.341Z,6.53
2018-12-11T06:53:23.845Z,8.83
2018-12-11T06:55:26.439Z,10.23
2018-12-11T06:57:28.978Z,7.90
2018-12-11T06:59:31.522Z,6.70
2018-12-11T07:01:34.090Z,7.80
2018-12-11T07:03:36.599Z,6.20
2018-12-11T07:05:39.127Z,6.90
2018-12-11T07:07:41.759Z,8.23
2018-12-11T07:09:44.287Z,7.17
2018-12-11T07:11:46.822Z,9.10
2018-12-11T07:13:49.361Z,6.03
2018-12-11T07:15:51.934Z,6.37
2018-12-11T07:17:54.513Z,5.10
2018-12-11T07:19:57.046Z,8.10
2018-12-11T07:21:59.596Z,8.57
2018-12-11T07:24:02.128Z,6.63
2018-12-11T07:26:04.769Z,7.10
2018-12-11T07:28:07.379Z,5.97
2018-12-11T07:30:09.999Z,6.73
2018-12-11T07:32:12.522Z,6.30
2018-12-11T07:34:15.071Z,6.27
2018-12-11T07:36:17.597Z,8.80
2018-12-11T07:38:20.189Z,8.47
2018-12-11T07:40:22.878Z,8.87
2018-12-11T07:42:25.561Z,5.13
2018-12-11T07:44:28.112Z,7.57
2018-12-11T07:46:30.658Z,10.07
2018-12-11T07:48:33.179Z,5.80
2018-12-11T07:50:35.814Z,5.73
2018-12-11T07:52:38.413Z,7.40
2018-12-11T07:54:40.943Z,6.07
2018-12-11T07:56:43.572Z,11.00
2018-12-11T07:58:46.090Z,7.93
2018-12-11T08:00:48.720Z,5.33
2018-12-11T08:02:51.351Z,7.83
2018-12-11T08:04:53.969Z,8.67
2018-12-11T08:06:56.618Z,7.07
2018-12-11T08:08:59.166Z,5.80
2018-12-11T08:11:01.671Z,3.23
2018-12-11T08:13:04.242Z,5.87
2018-12-11T08:15:06.963Z,7.43
2018-12-11T08:17:09.490Z,7.73
2018-12-11T08:19:12.289Z,4.83
2018-12-11T08:21:14.814Z,5.13
2018-12-11T08:23:17.335Z,7.13
2018-12-11T08:25:19.894Z,8.13
2018-12-11T08:27:22.425Z,7.93
2018-12-11T08:29:24.972Z,14.07
2018-12-11T08:31:27.557Z,8.10
2018-12-11T08:33:30.083Z,7.50
2018-12-11T08:35:32.719Z,7.00
2018-12-11T08:37:35.253Z,8.20
2018-12-11T08:39:37.990Z,6.90
2018-12-11T08:41:40.661Z,4.37
2018-12-11T08:43:43.213Z,5.77
2018-12-11T08:45:45.844Z,5.10
2018-12-11T08:47:48.509Z,5.80
2018-12-11T08:49:51.186Z,5.73
2018-12-11T08:51:54.017Z,7.13
2018-12-11T08:53:56.578Z,10.80
2018-12-11T08:55:59.115Z,6.70
2018-12-11T08:58:01.698Z,7.27
2018-12-11T09:00:06.825Z,8.03
2018-12-11T09:02:09.581Z,5.87
2018-12-11T09:04:12.220Z,5.80
2018-12-11T09:06:14.782Z,7.23
2018-12-11T09:08:17.358Z,8.60
2018-12-11T09:10:19.903Z,3.90
2018-12-11T09:12:22.466Z,6.50
2018-12-11T09:14:25.059Z,5.93
2018-12-11T09:16:27.580Z,4.50
2018-12-11T09:18:30.165Z,4.87
2018-12-11T09:20:32.705Z,6.70
2018-12-11T09:22:35.239Z,4.97
2018-12-11T09:24:37.750Z,4.70
2018-12-11T09:26:40.316Z,7.10
2018-12-11T09:28:42.894Z,9.53
2018-12-11T09:30:45.482Z,5.30
2018-12-11T09:32:48.160Z,10.37
2018-12-11T09:34:50.798Z,6.87
2018-12-11T09:36:53.351Z,10.30
2018-12-11T09:38:55.934Z,5.00
2018-12-11T09:40:58.475Z,4.73
2018-12-11T09:43:01.119Z,6.23
2018-12-11T09:45:05.466Z,6.03
2018-12-11T09:47:08.242Z,13.80
2018-12-11T09:49:10.867Z,4.17
2018-12-11T09:51:17.744Z,8.30
2018-12-11T09:53:17.968Z,5.33
2018-12-11T09:55:20.568Z,3.57
2018-12-11T09:57:23.138Z,8.47
2018-12-11T09:59:25.750Z,8.17
2018-12-11T10:01:28.263Z,6.30
2018-12-11T10:03:30.868Z,3.40
2018-12-11T10:05:33.494Z,4.37
2018-12-11T10:07:36.040Z,4.63
2018-12-11T10:09:38.668Z,7.07
2018-12-11T10:11:41.186Z,5.20
2018-12-11T10:13:43.834Z,3.97
2018-12-11T10:15:46.373Z,2.60
2018-12-11T10:17:48.984Z,3.60
2018-12-11T10:19:51.608Z,6.00
2018-12-11T10:21:54.150Z,4.53
2018-12-11T10:23:56.707Z,5.87
2018-12-11T10:25:59.385Z,4.00
2018-12-11T10:28:01.961Z,4.87
2018-12-11T10:30:07.828Z,5.83
2018-12-11T10:32:10.365Z,4.63
2018-12-11T10:34:12.978Z,5.47
2018-12-11T10:36:15.721Z,4.73
2018-12-11T10:38:18.254Z,3.37
2018-12-11T10:40:20.888Z,5.10
2018-12-11T10:42:23.490Z,3.77
2018-12-11T10:44:26.206Z,4.47
2018-12-11T10:46:33.705Z,3.83
2018-12-11T10:48:33.337Z,5.97
2018-12-11T10:50:35.914Z,5.63
2018-12-11T10:52:38.512Z,8.53
2018-12-11T10:54:41.107Z,4.23
2018-12-11T10:56:43.806Z,6.83
2018-12-11T10:58:46.450Z,6.83
2018-12-11T11:00:51.007Z,3.80
2018-12-11T11:02:59.229Z,7.13
2018-12-11T11:05:01.856Z,4.63
2018-12-11T11:07:04.565Z,3.03
2018-12-11T11:09:07.328Z,3.53
2018-12-11T11:11:09.967Z,2.27
2018-12-11T11:13:12.673Z,3.57
2018-12-11T11:15:15.369Z,2.50
2018-12-11T11:17:18.008Z,4.33
2018-12-11T11:19:20.559Z,3.03
2018-12-11T11:21:23.096Z,7.00
2018-12-11T11:23:25.755Z,3.17
2018-12-11T11:25:28.411Z,2.47
2018-12-11T11:27:31.933Z,2.53
2018-12-11T11:29:34.480Z,2.73
2018-12-11T11:31:37.020Z,4.30
2018-12-11T11:33:39.564Z,3.47
2018-12-11T11:35:42.232Z,4.27
2018-12-11T11:37:44.794Z,2.80
2018-12-11T11:39:47.419Z,3.83
2018-12-11T11:41:49.942Z,3.40
2018-12-11T11:43:52.462Z,5.10
2018-12-11T11:45:55.075Z,9.90
2018-12-11T11:47:57.586Z,7.47
2018-12-11T11:50:00.158Z,10.13
2018-12-11T11:52:02.678Z,7.53
2018-12-11T11:54:05.301Z,6.33
2018-12-11T11:56:07.961Z,13.10
2018-12-11T11:58:10.541Z,5.37
2018-12-11T12:00:14.483Z,6.13
2018-12-11T12:02:17.073Z,10.27
2018-12-11T12:04:19.701Z,13.60
2018-12-11T12:06:22.211Z,5.77
2018-12-11T12:08:24.844Z,5.47
2018-12-11T12:10:27.405Z,6.70
2018-12-11T12:12:30.040Z,7.67
2018-12-11T12:14:32.819Z,8.07
2018-12-11T12:16:35.396Z,8.70
2018-12-11T12:18:37.969Z,7.10
2018-12-11T12:20:40.547Z,6.80
2018-12-11T12:22:43.100Z,6.77
2018-12-11T12:24:45.626Z,6.93
2018-12-11T12:26:48.254Z,7.67
2018-12-11T12:28:50.957Z,7.43
2018-12-11T12:30:54.257Z,11.20
2018-12-11T12:32:56.887Z,7.97
2018-12-11T12:34:59.503Z,7.30
2018-12-11T12:37:02.162Z,8.50
2018-12-11T12:39:06.926Z,5.80
2018-12-11T12:41:09.580Z,7.63
2018-12-11T12:43:12.142Z,6.43
2018-12-11T12:45:14.699Z,9.30
2018-12-11T12:47:17.319Z,12.63
2018-12-11T12:49:19.874Z,5.47
2018-12-11T12:51:22.421Z,10.53
2018-12-11T12:53:24.992Z,6.70
2018-12-11T12:55:27.584Z,6.43
2018-12-11T12:57:30.212Z,6.77
2018-12-11T12:59:32.899Z,12.33
2018-12-11T13:01:35.493Z,7.77
2018-12-11T13:03:38.203Z,7.63
2018-12-11T13:05:41.103Z,14.43
2018-12-11T13:07:43.660Z,8.20
2018-12-11T13:09:46.227Z,8.67
2018-12-11T13:11:48.882Z,9.23
2018-12-11T13:13:51.490Z,6.53
2018-12-11T13:15:54.099Z,7.40
2018-12-11T13:17:56.624Z,12.20
2018-12-11T13:19:59.237Z,6.50
2018-12-11T13:22:01.799Z,9.03
2018-12-11T13:24:04.476Z,4.37
2018-12-11T13:26:07.049Z,8.47
2018-12-11T13:28:09.641Z,9.37
2018-12-11T13:30:12.371Z,9.40
2018-12-11T13:32:14.957Z,6.90
2018-12-11T13:34:17.734Z,7.10
2018-12-11T13:36:20.445Z,7.77
2018-12-11T13:38:23.105Z,8.60
2018-12-11T13:40:25.774Z,7.97
2018-12-11T13:42:28.420Z,5.13
2018-12-11T13:44:30.944Z,6.10
2018-12-11T13:46:33.939Z,6.43
2018-12-11T13:48:36.578Z,4.07
2018-12-11T13:50:39.184Z,6.43
2018-12-11T13:52:41.743Z,6.37
2018-12-11T13:54:44.423Z,7.37
2018-12-11T13:56:46.986Z,4.73
2018-12-11T13:58:49.603Z,5.43
2018-12-11T14:00:52.129Z,6.53
2018-12-11T14:02:54.781Z,8.23
2018-12-11T14:04:57.340Z,8.07
2018-12-11T14:06:59.909Z,8.80
2018-12-11T14:09:04.460Z,6.50
2018-12-11T14:11:07.103Z,7.90
2018-12-11T14:13:09.819Z,4.97
2018-12-11T14:15:12.494Z,9.07
2018-12-11T14:17:15.231Z,3.97
2018-12-11T14:19:17.906Z,8.63
2018-12-11T14:21:20.517Z,4.57
2018-12-11T14:23:23.107Z,7.40
2018-12-11T14:25:25.819Z,9.30
2018-12-11T14:27:28.339Z,6.97
2018-12-11T14:29:30.912Z,8.50
2018-12-11T14:31:33.453Z,7.03
2018-12-11T14:33:36.087Z,5.33
2018-12-11T14:35:38.726Z,8.10
2018-12-11T14:37:41.383Z,8.23
2018-12-11T14:39:44.041Z,5.77
2018-12-11T14:41:46.549Z,7.07
2018-12-11T14:43:49.133Z,7.63
2018-12-11T14:45:51.679Z,11.30
2018-12-11T14:47:54.234Z,11.17
2018-12-11T14:49:56.799Z,7.70
2018-12-11T14:51:59.336Z,10.43
2018-12-11T14:54:02.119Z,8.03
2018-12-11T14:56:04.656Z,6.53
2018-12-11T14:58:07.348Z,7.27
2018-12-11T15:00:10.212Z,11.13
2018-12-11T15:02:12.890Z,5.73
2018-12-11T15:04:15.464Z,8.87
2018-12-11T15:06:18.018Z,16.27
2018-12-11T15:08:20.587Z,7.80
2018-12-11T15:10:23.273Z,7.93
2018-12-11T15:12:25.842Z,7.67
2018-12-11T15:14:28.413Z,10.53
2018-12-11T15:16:31.010Z,10.77
2018-12-11T15:18:33.582Z,8.97
2018-12-11T15:20:36.284Z,10.77
2018-12-11T15:22:38.816Z,7.30
2018-12-11T15:24:41.363Z,7.70
2018-12-11T15:26:43.941Z,8.77
2018-12-11T15:28:46.540Z,10.53
2018-12-11T15:30:49.191Z,9.20
2018-12-11T15:32:51.813Z,8.73
2018-12-11T15:34:54.494Z,5.90
2018-12-11T15:36:57.043Z,5.73
2018-12-11T15:38:59.599Z,5.20
2018-12-11T15:41:02.156Z,6.60
2018-12-11T15:43:04.763Z,7.27
2018-12-11T15:45:07.419Z,7.17
2018-12-11T15:47:09.978Z,10.47
2018-12-11T15:49:12.518Z,8.03
2018-12-11T15:51:15.154Z,11.33
2018-12-11T15:53:17.695Z,10.10
2018-12-11T15:55:20.246Z,12.30
2018-12-11T15:57:22.824Z,8.33
2018-12-11T15:59:25.482Z,11.33
2018-12-11T16:01:28.226Z,9.97
2018-12-11T16:03:30.729Z,8.73
2018-12-11T16:05:33.372Z,8.47
2018-12-11T16:07:36.026Z,10.10
2018-12-11T16:09:38.570Z,9.43
2018-12-11T16:11:41.091Z,10.70
2018-12-11T16:13:43.733Z,9.17
2018-12-11T16:15:46.262Z,7.77
2018-12-11T16:17:49.079Z,7.57
2018-12-11T16:19:51.638Z,5.37
2018-12-11T16:21:54.333Z,9.03
2018-12-11T16:23:57.077Z,8.90
2018-12-11T16:25:59.626Z,7.57
2018-12-11T16:28:02.155Z,8.10
2018-12-11T16:30:05.727Z,14.83
2018-12-11T16:32:08.221Z,11.73
2018-12-11T16:34:10.864Z,10.77
2018-12-11T16:36:13.531Z,16.70
2018-12-11T16:38:16.034Z,13.90
2018-12-11T16:40:18.672Z,10.20
2018-12-11T16:42:21.181Z,12.67
2018-12-11T16:44:23.781Z,13.93
2018-12-11T16:46:26.405Z,12.93
2018-12-11T16:48:29.022Z,9.63
2018-12-11T16:50:31.682Z,8.27
2018-12-11T16:52:34.229Z,6.20
2018-12-11T16:54:36.819Z,8.47
2018-12-11T16:56:39.366Z,9.37
2018-12-11T16:58:41.952Z,10.07
2018-12-11T17:00:44.479Z,9.20
2018-12-11T17:02:47.155Z,12.53
2018-12-11T17:04:49.766Z,14.67
2018-12-11T17:06:53.526Z,10.03
2018-12-11T17:08:56.222Z,8.97
2018-12-11T17:10:58.775Z,12.30
2018-12-11T17:13:01.318Z,11.07
2018-12-11T17:15:04.649Z,10.27
2018-12-11T17:17:07.181Z,9.80
2018-12-11T17:19:09.718Z,9.97
2018-12-11T17:21:12.274Z,13.63
2018-12-11T17:23:14.800Z,7.40
2018-12-11T17:25:17.350Z,8.53
2018-12-11T17:27:19.948Z,10.60
2018-12-11T17:29:24.418Z,11.43
2018-12-11T17:31:27.118Z,9.10
2018-12-11T17:33:29.724Z,12.60
2018-12-11T17:35:32.330Z,10.33
2018-12-11T17:37:34.993Z,13.33
2018-12-11T17:39:37.510Z,11.80
2018-12-11T17:41:40.060Z,9.63
2018-12-11T17:43:42.587Z,11.63
2018-12-11T17:45:45.109Z,11.47
2018-12-11T17:47:47.915Z,8.93
2018-12-11T17:49:50.485Z,7.73
2018-12-11T17:51:53.022Z,7.93
2018-12-11T17:53:55.582Z,10.77
2018-12-11T17:55:58.137Z,12.10
2018-12-11T17:58:00.646Z,11.20
2018-12-11T18:00:03.972Z,17.97
2018-12-11T18:02:08.596Z,26.33
2018-12-11T18:04:11.163Z,28.07
2018-12-11T18:06:13.812Z,36.80
2018-12-11T18:08:16.452Z,31.90
2018-12-11T18:10:19.193Z,18.67
2018-12-11T18:12:21.759Z,16.23
2018-12-11T18:14:24.373Z,16.53
2018-12-11T18:16:26.930Z,19.13
2018-12-11T18:18:29.460Z,17.60
2018-12-11T18:20:32.005Z,11.53
2018-12-11T18:22:34.554Z,13.67
2018-12-11T18:24:37.192Z,10.80
2018-12-11T18:26:39.723Z,11.33
2018-12-11T18:28:42.281Z,11.07
2018-12-11T18:30:45.454Z,10.47
2018-12-11T18:32:48.648Z,11.87
2018-12-11T18:34:51.641Z,9.90
2018-12-11T18:36:54.294Z,12.77
2018-12-11T18:38:56.892Z,12.83
2018-12-11T18:40:59.557Z,10.40
2018-12-11T18:43:02.149Z,10.70
2018-12-11T18:45:06.670Z,14.20
2018-12-11T18:47:09.214Z,10.90
2018-12-11T18:49:11.769Z,13.17
2018-12-11T18:51:14.381Z,10.83
2018-12-11T18:53:16.989Z,13.03
2018-12-11T18:55:19.672Z,16.13
2018-12-11T18:57:22.255Z,13.93
2018-12-11T18:59:24.868Z,17.03
2018-12-11T19:01:27.476Z,10.97
2018-12-11T19:03:30.013Z,10.87
2018-12-11T19:05:32.596Z,9.23
2018-12-11T19:07:35.150Z,13.53
2018-12-11T19:09:37.747Z,11.07
2018-12-11T19:11:40.310Z,10.50
2018-12-11T19:13:42.852Z,11.30
2018-12-11T19:15:45.521Z,12.60
2018-12-11T19:17:48.057Z,11.50
2018-12-11T19:19:50.710Z,10.53
2018-12-11T19:21:53.226Z,11.00
2018-12-11T19:23:56.095Z,22.17
2018-12-11T19:25:58.690Z,10.80
2018-12-11T19:28:01.306Z,9.60
2018-12-11T19:30:05.569Z,11.80
2018-12-11T19:32:08.089Z,12.60
2018-12-11T19:34:10.735Z,10.47
2018-12-11T19:36:13.315Z,12.93
2018-12-11T19:38:15.822Z,10.33
2018-12-11T19:40:18.402Z,11.27
2018-12-11T19:44:31.690Z,22.13
2018-12-11T19:46:34.204Z,13.10
2018-12-11T19:48:36.799Z,10.87
2018-12-11T19:50:39.376Z,15.17
2018-12-11T19:52:42.055Z,21.67
2018-12-11T19:54:44.577Z,12.90
2018-12-11T19:56:47.171Z,9.70
2018-12-11T19:58:49.686Z,17.10
2018-12-11T20:00:52.205Z,10.10
2018-12-11T20:02:54.735Z,12.33
2018-12-11T20:04:57.335Z,11.23
2018-12-11T20:06:59.913Z,16.30
2018-12-11T20:11:11.610Z,11.60
2018-12-11T20:13:14.558Z,13.50
2018-12-11T20:15:17.159Z,16.47
2018-12-11T20:17:19.739Z,14.40
2018-12-11T20:19:22.309Z,14.97
2018-12-11T20:21:24.882Z,13.23
2018-12-11T20:23:27.419Z,12.40
2018-12-11T20:25:29.982Z,18.97
2018-12-11T20:27:32.490Z,11.93
2018-12-11T20:29:35.067Z,10.27
2018-12-11T20:31:37.683Z,13.07
2018-12-11T20:33:40.254Z,16.23
2018-12-11T20:35:42.841Z,9.00
2018-12-11T20:37:45.370Z,12.83
2018-12-11T20:39:48.124Z,13.47
2018-12-11T20:41:50.671Z,15.30
2018-12-11T20:43:53.194Z,14.00
2018-12-11T20:45:55.911Z,14.70
2018-12-11T20:47:58.488Z,11.67
2018-12-11T20:50:01.054Z,11.63
2018-12-11T20:52:03.660Z,17.07
2018-12-11T20:54:06.206Z,15.33
2018-12-11T20:56:08.753Z,14.13
2018-12-11T20:58:11.383Z,11.47
2018-12-11T21:00:13.925Z,13.17
2018-12-11T21:02:16.507Z,16.77
2018-12-11T21:04:19.063Z,17.23
2018-12-11T21:06:22.290Z,15.97
2018-12-11T21:08:24.839Z,13.80
2018-12-11T21:10:27.394Z,13.97
2018-12-11T21:12:30.030Z,12.27
2018-12-11T21:14:32.616Z,17.37
2018-12-11T21:16:35.237Z,14.07
2018-12-11T21:18:37.888Z,12.50
2018-12-11T21:20:40.397Z,12.20
2018-12-11T21:22:42.924Z,12.87
2018-12-11T21:24:45.522Z,12.97
2018-12-11T21:26:48.256Z,13.43
2018-12-11T21:28:50.830Z,11.43
2018-12-11T21:30:53.398Z,13.53
2018-12-11T21:32:55.947Z,13.90
2018-12-11T21:34:58.513Z,14.43
2018-12-11T21:37:01.046Z,12.53
2018-12-11T21:39:06.035Z,14.40
2018-12-11T21:41:08.619Z,17.33
2018-12-11T21:43:11.198Z,18.00
2018-12-11T21:45:13.803Z,15.00
2018-12-11T21:47:16.381Z,9.63
2018-12-11T21:49:18.988Z,15.47
2018-12-11T21:51:21.566Z,16.90
2018-12-11T21:53:24.283Z,14.07
2018-12-11T21:55:26.997Z,13.13
2018-12-11T21:57:29.513Z,10.17
2018-12-11T21:59:32.067Z,16.37
2018-12-11T22:01:34.626Z,13.93
2018-12-11T22:03:37.367Z,16.23
2018-12-11T22:05:40.111Z,15.27
2018-12-11T22:07:42.636Z,15.50
2018-12-11T22:09:47.208Z,12.50
2018-12-11T22:11:49.782Z,10.00
2018-12-11T22:13:52.497Z,13.13
2018-12-11T22:15:55.213Z,9.60
2018-12-11T22:17:57.780Z,12.57
2018-12-11T22:20:00.306Z,12.00
2018-12-11T22:22:02.886Z,11.80
2018-12-11T22:24:05.493Z,11.03
2018-12-11T22:26:08.042Z,12.73
2018-12-11T22:28:10.693Z,11.00
2018-12-11T22:30:13.233Z,12.53
2018-12-11T22:32:15.855Z,12.17
2018-12-11T22:34:18.381Z,13.30
2018-12-11T22:36:20.897Z,10.47
2018-12-11T22:38:23.488Z,12.03
2018-12-11T22:40:26.221Z,12.83
2018-12-11T22:42:28.773Z,13.53
2018-12-11T22:44:31.289Z,13.10
2018-12-11T22:46:33.797Z,11.57
2018-12-11T22:48:36.541Z,14.60
2018-12-11T22:50:39.075Z,13.63
2018-12-11T22:52:41.668Z,13.20
2018-12-11T22:54:44.265Z,11.10
2018-12-11T22:56:46.909Z,16.37
2018-12-11T22:58:49.426Z,13.50
2018-12-11T23:00:52.035Z,13.00
2018-12-11T23:02:54.577Z,14.37
2018-12-11T23:04:57.107Z,12.77
2018-12-11T23:06:59.754Z,13.67
2018-12-11T23:09:02.530Z,14.47
2018-12-11T23:11:05.246Z,10.57
2018-12-11T23:13:07.857Z,10.37
2018-12-11T23:15:10.594Z,13.40
2018-12-11T23:17:13.196Z,13.87
2018-12-11T23:19:15.723Z,15.53
2018-12-11T23:21:18.582Z,12.23
2018-12-11T23:23:21.235Z,15.90
2018-12-11T23:25:23.813Z,13.77
2018-12-11T23:27:26.363Z,14.03
2018-12-11T23:29:28.885Z,12.03
2018-12-11T23:31:31.438Z,14.67
2018-12-11T23:33:33.975Z,11.00
2018-12-11T23:35:36.565Z,11.60
2018-12-11T23:37:39.218Z,12.57
2018-12-11T23:39:41.763Z,8.73
2018-12-11T23:41:44.317Z,11.47
2018-12-11T23:43:46.857Z,10.63
2018-12-11T23:45:49.376Z,9.90
2018-12-11T23:47:51.923Z,9.53
2018-12-11T23:49:54.486Z,11.10
2018-12-11T23:51:57.007Z,10.53
2018-12-11T23:53:59.627Z,8.27
2018-12-11T23:56:02.147Z,10.43
2018-12-11T23:58:04.723Z,10.30
